Time;durP1;ratioP1;P1;durP2;ratioP2;P2;SDS_P1;SDS_P2;PMS_P1;PMS_P2;Temp;Humidity;BMP_temperature;BMP_pressure;BME280_temperature;BME280_humidity;BME280_pressure;Samples;Min_cycle;Max_cycle;Signal;HPM_P1;HPM_P2
2021/05/28 00:00:38;;;;;;;3.20;2.47;;;;;;;;;;4994530;28;20629;-73
2021/05/28 00:03:42;;;;;;;3.30;2.77;;;;;;;;;;4994996;28;20217;-73
2021/05/28 00:06:46;;;;;;;3.20;2.60;;;;;;;;;;4993898;28;20182;-73
2021/05/28 00:09:50;;;;;;;5.53;2.70;;;;;;;;;;4993751;28;20186;-73
2021/05/28 00:12:55;;;;;;;3.37;2.50;;;;;;;;;;4993484;28;20692;-74
2021/05/28 00:16:01;;;;;;;3.70;2.47;;;;;;;;;;5010343;28;20300;-73
2021/05/28 00:19:06;;;;;;;4.97;2.67;;;;;;;;;;5013116;28;20181;-73
2021/05/28 00:22:10;;;;;;;4.27;2.60;;;;;;;;;;5013933;28;20201;-73
2021/05/28 00:25:14;;;;;;;3.17;2.73;;;;;;;;;;5013522;28;20660;-73
2021/05/28 00:28:19;;;;;;;7.90;2.90;;;;;;;;;;5013764;28;20178;-73
2021/05/28 00:31:23;;;;;;;5.37;3.07;;;;;;;;;;5013666;28;20177;-73
2021/05/28 00:34:26;;;;;;;3.23;2.93;;;;;;;;;;5013338;28;20229;-73
2021/05/28 00:37:31;;;;;;;5.10;2.70;;;;;;;;;;5013386;28;20193;-73
2021/05/28 00:40:36;;;;;;;4.17;3.47;;;;;;;;;;5013462;28;20178;-73
2021/05/28 00:43:40;;;;;;;4.03;3.23;;;;;;;;;;5012440;28;20213;-73
2021/05/28 00:46:44;;;;;;;4.43;3.10;;;;;;;;;;5012472;28;20181;-74
2021/05/28 00:49:49;;;;;;;3.20;2.87;;;;;;;;;;5013806;28;20510;-73
2021/05/28 00:52:53;;;;;;;4.23;3.17;;;;;;;;;;5013247;28;20225;-74
2021/05/28 00:55:59;;;;;;;4.07;3.10;;;;;;;;;;5014422;28;20537;-73
2021/05/28 00:59:04;;;;;;;4.70;3.40;;;;;;;;;;5005160;28;20197;-73
2021/05/28 01:02:09;;;;;;;4.40;3.33;;;;;;;;;;5017233;28;20205;-73
2021/05/28 01:05:14;;;;;;;3.30;3.00;;;;;;;;;;5016780;28;20182;-73
2021/05/28 01:08:18;;;;;;;3.40;2.80;;;;;;;;;;5017000;28;20189;-73
2021/05/28 01:11:22;;;;;;;4.93;3.00;;;;;;;;;;5017225;28;20666;-73
2021/05/28 01:14:27;;;;;;;6.63;2.57;;;;;;;;;;5016373;28;20216;-73
2021/05/28 01:17:31;;;;;;;3.60;2.67;;;;;;;;;;5016877;28;20177;-74
2021/05/28 01:20:36;;;;;;;4.80;3.30;;;;;;;;;;5016240;28;20201;-73
2021/05/28 01:23:40;;;;;;;5.17;3.80;;;;;;;;;;5017015;28;20217;-73
2021/05/28 01:26:44;;;;;;;4.60;4.03;;;;;;;;;;5015921;28;20200;-73
2021/05/28 01:29:48;;;;;;;3.83;3.10;;;;;;;;;;5016290;28;20178;-74
2021/05/28 01:32:53;;;;;;;6.00;3.30;;;;;;;;;;5015667;28;20225;-73
2021/05/28 01:35:58;;;;;;;4.87;3.47;;;;;;;;;;5016870;28;20193;-73
2021/05/28 01:39:03;;;;;;;6.33;3.60;;;;;;;;;;5016692;28;20201;-73
2021/05/28 01:42:07;;;;;;;4.77;3.63;;;;;;;;;;5016860;28;20620;-74
2021/05/28 01:45:12;;;;;;;4.27;3.33;;;;;;;;;;5016933;28;20182;-74
2021/05/28 01:48:16;;;;;;;4.63;4.13;;;;;;;;;;5016619;28;20177;-73
2021/05/28 01:51:20;;;;;;;6.27;4.10;;;;;;;;;;5026383;22;20193;-74
2021/05/28 01:54:25;;;;;;;4.03;3.50;;;;;;;;;;5007440;28;20228;-74
2021/05/28 01:57:29;;;;;;;4.63;3.60;;;;;;;;;;5012844;28;20205;-74
2021/05/28 02:00:33;;;;;;;4.13;3.83;;;;;;;;;;5006892;28;20194;-74
2021/05/28 02:03:37;;;;;;;3.90;3.50;;;;;;;;;;5009557;28;20217;-74
2021/05/28 02:06:41;;;;;;;4.43;3.53;;;;;;;;;;5026840;28;20182;-74
2021/05/28 02:09:45;;;;;;;4.40;3.80;;;;;;;;;;5015953;28;20182;-74
2021/05/28 02:12:52;;;;;;;5.27;4.47;;;;;;;;;;5015961;28;20215;-74
2021/05/28 02:15:56;;;;;;;5.17;4.27;;;;;;;;;;5016039;28;20174;-74
2021/05/28 02:19:00;;;;;;;8.87;4.70;;;;;;;;;;5015235;28;20178;-74
2021/05/28 02:22:10;;;;;;;5.67;4.73;;;;;;;;;;5016137;28;20182;-74
2021/05/28 02:25:14;;;;;;;5.93;4.27;;;;;;;;;;5015584;28;20185;-74
2021/05/28 02:28:18;;;;;;;4.60;4.20;;;;;;;;;;5026466;28;20185;-74
2021/05/28 02:31:22;;;;;;;5.57;4.30;;;;;;;;;;5014869;28;20182;-74
2021/05/28 02:34:26;;;;;;;5.00;4.50;;;;;;;;;;5003174;28;20221;-74
2021/05/28 02:37:31;;;;;;;5.33;4.83;;;;;;;;;;4996371;28;20540;-74
2021/05/28 02:40:35;;;;;;;6.07;4.83;;;;;;;;;;4995940;28;20178;-74
2021/05/28 02:43:40;;;;;;;5.23;4.30;;;;;;;;;;5006163;28;20694;-74
2021/05/28 02:46:44;;;;;;;5.27;4.77;;;;;;;;;;4995775;28;20186;-74
2021/05/28 02:49:49;;;;;;;6.00;4.40;;;;;;;;;;4996155;28;20182;-74
2021/05/28 02:52:53;;;;;;;7.77;4.60;;;;;;;;;;5005958;28;20225;-74
2021/05/28 02:55:58;;;;;;;5.10;4.60;;;;;;;;;;4995539;28;20540;-77
2021/05/28 02:59:03;;;;;;;6.87;4.43;;;;;;;;;;4995691;28;20178;-74
2021/05/28 03:02:07;;;;;;;7.13;5.30;;;;;;;;;;4995358;28;20178;-74
2021/05/28 03:05:11;;;;;;;5.60;4.20;;;;;;;;;;4995807;28;20198;-74
2021/05/28 03:08:17;;;;;;;5.30;3.73;;;;;;;;;;5005921;28;20198;-74
2021/05/28 03:11:21;;;;;;;4.80;4.30;;;;;;;;;;4994639;28;20190;-74
2021/05/28 03:14:25;;;;;;;6.20;4.10;;;;;;;;;;4999496;28;20209;-75
2021/05/28 03:17:29;;;;;;;5.47;4.67;;;;;;;;;;5008604;28;20201;-74
2021/05/28 03:20:36;;;;;;;5.67;4.30;;;;;;;;;;5025090;28;20181;-74
2021/05/28 03:23:41;;;;;;;5.27;4.13;;;;;;;;;;5014967;28;20225;-74
2021/05/28 03:26:45;;;;;;;5.37;4.60;;;;;;;;;;5013294;28;20185;-74
2021/05/28 03:29:49;;;;;;;5.33;4.50;;;;;;;;;;5024884;28;20205;-74
2021/05/28 03:32:53;;;;;;;6.50;4.60;;;;;;;;;;5014204;28;20229;-74
2021/05/28 03:35:58;;;;;;;4.93;4.37;;;;;;;;;;5024800;28;20648;-74
2021/05/28 03:39:04;;;;;;;7.47;5.10;;;;;;;;;;5014516;28;20186;-74
2021/05/28 03:42:08;;;;;;;9.03;4.70;;;;;;;;;;5014111;28;20186;-74
2021/05/28 03:45:12;;;;;;;8.60;5.10;;;;;;;;;;5013827;28;20185;-74
2021/05/28 03:48:17;;;;;;;5.70;4.27;;;;;;;;;;5013808;28;20181;-74
2021/05/28 03:51:21;;;;;;;9.30;4.30;;;;;;;;;;5001657;28;20205;-74
2021/05/28 03:54:25;;;;;;;6.03;4.33;;;;;;;;;;5011634;28;20699;-74
2021/05/28 03:57:29;;;;;;;4.97;4.40;;;;;;;;;;5024343;28;20210;-74
2021/05/28 04:00:33;;;;;;;7.10;4.17;;;;;;;;;;4994817;28;20613;-74
2021/05/28 04:03:37;;;;;;;6.23;4.57;;;;;;;;;;4994993;28;20215;-74
2021/05/28 04:06:41;;;;;;;5.00;4.13;;;;;;;;;;4994445;28;20510;-74
2021/05/28 04:09:45;;;;;;;9.77;4.93;;;;;;;;;;4994692;28;20182;-75
2021/05/28 04:12:53;;;;;;;8.10;5.30;;;;;;;;;;4994024;28;20229;-74
2021/05/28 04:15:59;;;;;;;6.27;4.60;;;;;;;;;;5010082;28;20197;-74
2021/05/28 04:19:03;;;;;;;6.37;4.67;;;;;;;;;;4994263;28;20186;-74
2021/05/28 04:22:07;;;;;;;6.10;4.83;;;;;;;;;;4993889;28;20532;-74
2021/05/28 04:25:12;;;;;;;5.77;4.93;;;;;;;;;;5004492;28;20174;-75
2021/05/28 04:28:17;;;;;;;5.50;4.77;;;;;;;;;;5004874;28;20514;-74
2021/05/28 04:31:21;;;;;;;5.70;4.83;;;;;;;;;;4993146;28;20673;-74
2021/05/28 04:34:25;;;;;;;5.03;4.53;;;;;;;;;;4994276;28;20214;-74
2021/05/28 04:37:29;;;;;;;5.60;4.77;;;;;;;;;;4994107;28;20625;-74
2021/05/28 04:40:34;;;;;;;5.27;4.77;;;;;;;;;;5004187;28;20182;-74
2021/05/28 04:43:38;;;;;;;5.67;5.07;;;;;;;;;;4994058;28;20214;-75
2021/05/28 04:46:43;;;;;;;5.63;4.87;;;;;;;;;;5004318;28;20178;-74
2021/05/28 04:49:47;;;;;;;5.40;4.73;;;;;;;;;;5004682;28;20617;-75
2021/05/28 04:52:51;;;;;;;5.73;4.50;;;;;;;;;;4995935;28;20229;-74
2021/05/28 04:55:56;;;;;;;9.60;4.10;;;;;;;;;;4993809;28;20187;-74
2021/05/28 04:59:00;;;;;;;9.07;5.00;;;;;;;;;;4994173;28;20178;-74
2021/05/28 05:02:06;;;;;;;5.13;4.63;;;;;;;;;;4993449;28;20182;-74
2021/05/28 05:05:10;;;;;;;6.83;4.50;;;;;;;;;;4994101;28;20178;-75
2021/05/28 05:08:15;;;;;;;6.13;4.53;;;;;;;;;;4993759;28;20186;-75
2021/05/28 05:11:19;;;;;;;8.20;4.67;;;;;;;;;;5004465;28;20178;-75
2021/05/28 05:14:23;;;;;;;8.37;5.13;;;;;;;;;;4993338;28;20225;-74
2021/05/28 05:17:27;;;;;;;4.80;4.30;;;;;;;;;;5003990;28;20182;-74
2021/05/28 05:20:32;;;;;;;5.77;4.70;;;;;;;;;;5004136;28;20194;-75
2021/05/28 05:23:37;;;;;;;4.70;4.00;;;;;;;;;;4993323;28;20218;-75
2021/05/28 05:26:41;;;;;;;5.80;4.60;;;;;;;;;;4993821;28;20179;-75
2021/05/28 05:29:45;;;;;;;5.00;4.23;;;;;;;;;;5004358;28;20178;-74
2021/05/28 05:32:49;;;;;;;3.93;3.50;;;;;;;;;;5004048;28;20210;-74
2021/05/28 05:35:53;;;;;;;6.37;3.77;;;;;;;;;;5004218;28;20202;-74
2021/05/28 05:38:57;;;;;;;5.13;4.50;;;;;;;;;;5003948;28;20178;-74
2021/05/28 05:42:02;;;;;;;4.57;4.17;;;;;;;;;;4994257;28;20625;-74
2021/05/28 05:45:09;;;;;;;5.00;4.10;;;;;;;;;;4997364;28;20179;-74
2021/05/28 05:48:15;;;;;;;5.07;4.17;;;;;;;;;;4997027;28;20187;-74
2021/05/28 05:51:19;;;;;;;7.47;4.50;;;;;;;;;;4996904;28;20183;-75
2021/05/28 05:54:23;;;;;;;5.80;5.00;;;;;;;;;;4996693;28;20688;-74
2021/05/28 05:57:27;;;;;;;5.47;4.87;;;;;;;;;;5007071;28;20178;-74
2021/05/28 06:00:31;;;;;;;7.00;4.63;;;;;;;;;;4996503;28;20179;-74
2021/05/28 06:03:36;;;;;;;6.73;4.63;;;;;;;;;;4996806;28;20222;-74
2021/05/28 06:06:41;;;;;;;5.87;4.80;;;;;;;;;;4996724;28;20175;-74
2021/05/28 06:09:45;;;;;;;9.23;5.13;;;;;;;;;;5007629;28;20183;-75
2021/05/28 06:12:49;;;;;;;8.63;4.97;;;;;;;;;;4996426;28;20213;-74
2021/05/28 06:15:54;;;;;;;6.33;4.47;;;;;;;;;;4996358;28;20206;-75
2021/05/28 06:18:58;;;;;;;6.30;4.47;;;;;;;;;;4996462;28;20178;-75
2021/05/28 06:22:02;;;;;;;5.80;4.20;;;;;;;;;;4996012;28;20174;-75
2021/05/28 06:25:07;;;;;;;5.70;3.83;;;;;;;;;;4996067;28;20174;-75
2021/05/28 06:28:12;;;;;;;4.57;4.10;;;;;;;;;;4996553;28;20182;-75
2021/05/28 06:31:16;;;;;;;5.20;4.17;;;;;;;;;;4996344;28;20630;-75
2021/05/28 06:34:21;;;;;;;8.07;4.17;;;;;;;;;;4996037;28;20562;-75
2021/05/28 06:37:25;;;;;;;4.80;4.30;;;;;;;;;;4995587;28;20179;-75
2021/05/28 06:40:30;;;;;;;6.03;4.07;;;;;;;;;;4995947;28;20182;-75
2021/05/28 06:43:34;;;;;;;6.57;3.70;;;;;;;;;;4995892;28;20222;-75
2021/05/28 06:46:39;;;;;;;5.80;3.97;;;;;;;;;;4996065;28;20170;-74
2021/05/28 06:49:44;;;;;;;5.50;4.77;;;;;;;;;;4995911;28;20182;-75
2021/05/28 06:52:48;;;;;;;7.13;4.73;;;;;;;;;;4995322;28;20572;-75
2021/05/28 06:55:52;;;;;;;6.13;4.30;;;;;;;;;;4993052;28;20547;-75
2021/05/28 06:58:56;;;;;;;5.30;4.80;;;;;;;;;;4993716;28;20546;-74
2021/05/28 07:02:02;;;;;;;7.07;4.90;;;;;;;;;;5005911;28;20182;-74
2021/05/28 07:05:08;;;;;;;6.67;4.70;;;;;;;;;;4995597;28;20530;-74
2021/05/28 07:08:12;;;;;;;7.13;5.37;;;;;;;;;;4995787;28;20179;-74
2021/05/28 07:11:16;;;;;;;6.50;4.97;;;;;;;;;;4995368;28;20186;-74
2021/05/28 07:14:21;;;;;;;5.97;5.07;;;;;;;;;;4995073;28;20230;-74
2021/05/28 07:17:26;;;;;;;6.83;5.23;;;;;;;;;;4995363;28;20519;-74
2021/05/28 07:20:30;;;;;;;6.83;5.50;;;;;;;;;;4995558;28;20187;-74
2021/05/28 07:23:34;;;;;;;7.27;5.17;;;;;;;;;;5012354;28;20225;-75
2021/05/28 07:26:38;;;;;;;10.90;5.50;;;;;;;;;;5005818;28;20197;-74
2021/05/28 07:29:42;;;;;;;6.23;5.20;;;;;;;;;;4995419;28;20186;-74
2021/05/28 07:32:47;;;;;;;7.23;5.73;;;;;;;;;;5009176;28;20225;-74
2021/05/28 07:35:51;;;;;;;7.17;5.47;;;;;;;;;;5005495;28;20222;-74
2021/05/28 07:38:55;;;;;;;10.97;5.80;;;;;;;;;;4994925;28;20538;-74
2021/05/28 07:42:02;;;;;;;7.43;5.33;;;;;;;;;;4994622;28;20182;-74
2021/05/28 07:45:07;;;;;;;7.03;5.13;;;;;;;;;;4994842;28;20510;-75
2021/05/28 07:48:11;;;;;;;7.87;5.43;;;;;;;;;;4994486;28;20182;-74
2021/05/28 07:51:16;;;;;;;9.37;5.53;;;;;;;;;;4994840;28;20197;-74
2021/05/28 07:54:20;;;;;;;16.93;14.73;;;;;;;;;;4993969;28;20214;-75
2021/05/28 07:57:24;;;;;;;11.43;10.10;;;;;;;;;;4994356;28;20545;-74
2021/05/28 08:00:28;;;;;;;5.50;5.00;;;;;;;;;;4994273;28;20217;-74
2021/05/28 08:03:33;;;;;;;6.47;4.70;;;;;;;;;;4994134;28;20217;-75
2021/05/28 08:06:37;;;;;;;5.20;4.10;;;;;;;;;;5007301;28;20201;-75
2021/05/28 08:09:41;;;;;;;5.70;3.70;;;;;;;;;;5013677;28;20209;-74
2021/05/28 08:12:47;;;;;;;11.13;4.10;;;;;;;;;;4994084;28;20221;-74
2021/05/28 08:15:53;;;;;;;6.73;4.10;;;;;;;;;;4994447;28;20230;-75
2021/05/28 08:18:57;;;;;;;5.70;4.00;;;;;;;;;;4994146;28;20193;-75
2021/05/28 08:22:02;;;;;;;5.53;4.10;;;;;;;;;;4994197;28;20198;-75
2021/05/28 08:25:07;;;;;;;4.80;3.93;;;;;;;;;;5013457;28;20201;-75
2021/05/28 08:28:11;;;;;;;5.93;3.87;;;;;;;;;;5012953;28;20656;-75
2021/05/28 08:31:15;;;;;;;5.83;3.50;;;;;;;;;;5024320;28;20209;-74
2021/05/28 08:34:19;;;;;;;6.63;3.63;;;;;;;;;;4993243;28;20681;-75
2021/05/28 08:37:23;;;;;;;5.33;3.40;;;;;;;;;;4994092;28;20178;-74
2021/05/28 08:40:30;;;;;;;4.60;3.57;;;;;;;;;;4993901;28;20186;-74
2021/05/28 08:43:35;;;;;;;5.33;3.10;;;;;;;;;;4993664;28;20217;-74
2021/05/28 08:46:39;;;;;;;3.83;3.03;;;;;;;;;;4993878;28;20174;-74
2021/05/28 08:49:50;;;;;;;4.77;3.73;;;;;;;;;;4992938;28;20186;-74
2021/05/28 08:52:54;;;;;;;3.43;2.60;;;;;;;;;;4993491;28;20226;-75
2021/05/28 08:55:59;;;;;;;4.77;3.30;;;;;;;;;;5002373;28;20221;-75
2021/05/28 08:59:04;;;;;;;4.80;3.07;;;;;;;;;;5012833;28;20201;-74
2021/05/28 09:02:31;;;;;;;5.90;3.00;;;;;;;;;;5013073;28;20205;-75
2021/05/28 09:05:36;;;;;;;4.17;3.00;;;;;;;;;;4993221;28;20183;-75
2021/05/28 09:08:40;;;;;;;4.93;2.83;;;;;;;;;;5004258;28;20178;-75
2021/05/28 09:12:01;;;;;;;4.50;3.10;;;;;;;;;;4993754;28;20186;-75
2021/05/28 09:15:17;;;;;;;7.97;2.73;;;;;;;;;;4993862;28;20183;-76
2021/05/28 09:18:48;;;;;;;5.93;3.30;;;;;;;;;;4997125;28;20183;-75
2021/05/28 09:22:07;;;;;;;3.40;3.10;;;;;;;;;;5008213;28;20629;-75
2021/05/28 09:25:11;;;;;;;4.43;3.03;;;;;;;;;;4996763;28;20198;-75
2021/05/28 09:28:15;;;;;;;4.77;3.17;;;;;;;;;;4996552;28;20182;-75
2021/05/28 09:31:27;;;;;;;4.97;3.30;;;;;;;;;;4998747;28;20190;-76
2021/05/28 09:34:49;;;;;;;10.17;3.47;;;;;;;;;;5015945;28;20537;-75
2021/05/28 09:37:53;;;;;;;6.83;3.17;;;;;;;;;;5018013;28;20680;-75
2021/05/28 09:40:58;;;;;;;4.30;2.60;;;;;;;;;;5016438;28;20205;-76
2021/05/28 09:44:11;;;;;;;2.93;2.20;;;;;;;;;;5016681;28;20700;-75
2021/05/28 09:47:19;;;;;;;9.27;2.77;;;;;;;;;;5015652;28;20193;-75
2021/05/28 09:50:23;;;;;;;5.73;2.43;;;;;;;;;;5027202;28;20632;-75
2021/05/28 09:53:40;;;;;;;3.57;2.13;;;;;;;;;;5016264;28;20700;-75
2021/05/28 09:56:44;;;;;;;2.90;2.50;;;;;;;;;;5016200;28;20214;-76
2021/05/28 09:59:49;;;;;;;5.10;2.27;;;;;;;;;;5015509;28;20213;-75
2021/05/28 10:03:09;;;;;;;4.53;2.20;;;;;;;;;;5015986;28;20225;-75
2021/05/28 10:06:14;;;;;;;4.23;2.20;;;;;;;;;;5015966;28;20230;-75
2021/05/28 10:09:18;;;;;;;5.37;2.30;;;;;;;;;;5016261;28;20177;-75
2021/05/28 10:12:24;;;;;;;4.63;2.60;;;;;;;;;;5026393;28;20217;-76
2021/05/28 10:15:28;;;;;;;2.60;2.07;;;;;;;;;;5016083;28;20648;-76
2021/05/28 10:18:33;;;;;;;2.73;1.60;;;;;;;;;;5015559;28;20181;-76
2021/05/28 10:21:37;;;;;;;1.87;1.67;;;;;;;;;;5016064;28;20181;-75
2021/05/28 10:24:42;;;;;;;3.10;2.00;;;;;;;;;;5015806;28;20190;-75
2021/05/28 10:27:59;;;;;;;4.93;2.30;;;;;;;;;;5015638;28;20198;-75
2021/05/28 10:31:04;;;;;;;4.93;2.00;;;;;;;;;;5016071;28;20182;-76
2021/05/28 10:34:08;;;;;;;2.07;1.77;;;;;;;;;;5015952;28;20213;-76
2021/05/28 10:37:27;;;;;;;3.40;1.50;;;;;;;;;;5026140;28;20205;-75
2021/05/28 10:40:32;;;;;;;2.70;1.77;;;;;;;;;;5010751;28;20193;-76
2021/05/28 10:43:48;;;;;;;5.23;1.57;;;;;;;;;;5022027;28;20602;-75
2021/05/28 10:46:56;;;;;;;3.40;1.57;;;;;;;;;;5011506;28;20178;-76
2021/05/28 10:50:04;;;;;;;5.53;1.57;;;;;;;;;;5011434;28;20185;-76
2021/05/28 10:53:09;;;;;;;2.67;1.53;;;;;;;;;;5021747;28;20221;-76
2021/05/28 10:56:13;;;;;;;2.07;1.80;;;;;;;;;;5010701;28;20541;-75
2021/05/28 10:59:20;;;;;;;3.30;1.73;;;;;;;;;;5021977;28;20189;-76
2021/05/28 11:02:48;;;;;;;3.13;1.90;;;;;;;;;;5010933;28;20580;-76
2021/05/28 11:05:55;;;;;;;3.17;1.80;;;;;;;;;;5011345;28;20596;-76
2021/05/28 11:09:09;;;;;;;5.73;3.70;;;;;;;;;;5011161;28;20640;-76
2021/05/28 11:12:26;;;;;;;40.70;26.70;;;;;;;;;;5021530;28;20675;-76
2021/05/28 11:15:32;;;;;;;50.07;33.20;;;;;;;;;;5010781;28;20273;-75
2021/05/28 11:18:45;;;;;;;6.63;4.30;;;;;;;;;;5010963;28;20224;-75
2021/05/28 11:21:53;;;;;;;4.03;3.07;;;;;;;;;;5010978;28;20181;-75
2021/05/28 11:25:01;;;;;;;35.00;23.80;;;;;;;;;;5010075;28;20181;-75
2021/05/28 11:28:09;;;;;;;2.40;2.20;;;;;;;;;;5010468;28;20180;-76
2021/05/28 11:31:13;;;;;;;34.10;21.17;;;;;;;;;;5021162;28;20544;-75
2021/05/28 11:34:17;;;;;;;35.53;23.73;;;;;;;;;;5009818;28;20219;-75
2021/05/28 11:37:38;;;;;;;21.63;14.20;;;;;;;;;;5010514;28;20220;-75
2021/05/28 11:40:43;;;;;;;4.80;3.57;;;;;;;;;;5010232;28;20193;-75
2021/05/28 11:43:48;;;;;;;9.43;3.80;;;;;;;;;;5010415;28;20217;-76
2021/05/28 11:46:53;;;;;;;10.63;6.53;;;;;;;;;;5009698;28;20182;-76
2021/05/28 11:49:57;;;;;;;2.77;1.60;;;;;;;;;;5010443;28;20182;-75
2021/05/28 11:53:03;;;;;;;4.60;3.93;;;;;;;;;;5010221;28;20986;-76
2021/05/28 11:56:08;;;;;;;16.63;10.67;;;;;;;;;;5020800;28;20633;-75
2021/05/28 11:59:12;;;;;;;2.77;2.13;;;;;;;;;;5014022;28;20192;-76
2021/05/28 12:02:40;;;;;;;4.77;1.77;;;;;;;;;;5014038;28;20629;-75
2021/05/28 12:05:46;;;;;;;3.17;2.13;;;;;;;;;;5013593;28;20185;-76
2021/05/28 12:08:51;;;;;;;3.40;2.30;;;;;;;;;;5013263;28;20539;-76
2021/05/28 12:11:58;;;;;;;2.97;2.00;;;;;;;;;;5014041;28;20177;-76
2021/05/28 12:15:07;;;;;;;2.17;1.90;;;;;;;;;;5013471;28;20177;-76
2021/05/28 12:18:31;;;;;;;3.40;2.10;;;;;;;;;;5012807;28;20221;-76
2021/05/28 12:21:35;;;;;;;3.63;2.20;;;;;;;;;;5013349;28;20633;-76
2021/05/28 12:24:43;;;;;;;4.57;2.30;;;;;;;;;;5013647;28;20181;-76
2021/05/28 12:27:47;;;;;;;3.43;2.30;;;;;;;;;;5013843;28;20182;-76
2021/05/28 12:31:11;;;;;;;2.60;2.13;;;;;;;;;;5013760;28;20186;-76
2021/05/28 12:34:15;;;;;;;2.43;2.03;;;;;;;;;;5013909;28;20217;-75
2021/05/28 12:37:19;;;;;;;3.97;2.20;;;;;;;;;;5013908;28;20668;-76
2021/05/28 12:40:24;;;;;;;8.10;2.53;;;;;;;;;;5013515;28;20170;-76
2021/05/28 12:43:30;;;;;;;2.40;2.17;;;;;;;;;;5024029;28;20221;-76
2021/05/28 12:46:39;;;;;;;3.27;2.30;;;;;;;;;;5012752;28;20193;-76
2021/05/28 12:49:44;;;;;;;3.17;2.27;;;;;;;;;;5012780;28;20185;-76
2021/05/28 12:52:53;;;;;;;3.27;1.90;;;;;;;;;;5015618;28;20221;-76
2021/05/28 12:55:58;;;;;;;4.90;1.90;;;;;;;;;;5017698;28;20181;-76
2021/05/28 12:59:02;;;;;;;1.97;1.60;;;;;;;;;;5017311;28;20173;-76
2021/05/28 13:02:18;;;;;;;3.30;1.90;;;;;;;;;;5028030;28;20514;-76
2021/05/28 13:05:31;;;;;;;2.60;1.50;;;;;;;;;;5017500;28;20181;-76
2021/05/28 13:08:35;;;;;;;2.67;1.63;;;;;;;;;;5017117;28;20173;-76
2021/05/28 13:11:47;;;;;;;2.53;1.40;;;;;;;;;;5027616;28;20201;-76
2021/05/28 13:14:54;;;;;;;3.43;1.77;;;;;;;;;;5016710;28;20185;-76
2021/05/28 13:17:59;;;;;;;2.93;1.67;;;;;;;;;;5017110;28;20205;-76
2021/05/28 13:21:23;;;;;;;3.63;1.70;;;;;;;;;;5011894;28;20675;-76
2021/05/28 13:24:37;;;;;;;2.30;1.93;;;;;;;;;;5015931;28;20197;-76
2021/05/28 13:27:47;;;;;;;3.63;1.80;;;;;;;;;;5017270;28;20526;-76
2021/05/28 13:31:05;;;;;;;13.13;3.00;;;;;;;;;;5016701;28;20182;-75
2021/05/28 13:34:09;;;;;;;13.97;1.90;;;;;;;;;;5016820;28;20209;-76
2021/05/28 13:37:14;;;;;;;4.33;1.90;;;;;;;;;;5027351;28;20537;-76
2021/05/28 13:40:18;;;;;;;2.30;1.50;;;;;;;;;;5027120;28;20178;-75
2021/05/28 13:43:24;;;;;;;1.93;1.60;;;;;;;;;;5012591;28;20225;-76
2021/05/28 13:46:31;;;;;;;2.23;1.50;;;;;;;;;;4997419;28;20174;-76
2021/05/28 13:49:36;;;;;;;2.60;1.70;;;;;;;;;;4997045;28;20175;-76
2021/05/28 13:52:40;;;;;;;9.20;1.93;;;;;;;;;;4996860;28;20574;-76
2021/05/28 13:55:45;;;;;;;3.50;1.87;;;;;;;;;;4997011;28;20186;-76
2021/05/28 13:58:50;;;;;;;3.97;2.70;;;;;;;;;;4996831;28;20551;-76
2021/05/28 14:01:54;;;;;;;12.40;2.70;;;;;;;;;;5007055;28;20182;-75
2021/05/28 14:04:58;;;;;;;2.57;1.70;;;;;;;;;;5007369;28;20518;-76
2021/05/28 14:08:02;;;;;;;7.10;2.43;;;;;;;;;;5008690;28;20201;-75
2021/05/28 14:11:07;;;;;;;12.80;9.10;;;;;;;;;;5016505;28;20181;-76
2021/05/28 14:14:11;;;;;;;3.40;3.07;;;;;;;;;;5015843;28;20217;-76
2021/05/28 14:17:16;;;;;;;4.37;3.27;;;;;;;;;;5015827;28;20205;-76
2021/05/28 14:20:22;;;;;;;3.43;2.40;;;;;;;;;;5016136;28;20182;-76
2021/05/28 14:23:26;;;;;;;3.80;2.30;;;;;;;;;;5015939;28;20217;-76
2021/05/28 14:26:31;;;;;;;3.80;2.57;;;;;;;;;;5026448;28;20181;-76
2021/05/28 14:29:35;;;;;;;4.77;2.60;;;;;;;;;;5015917;28;20177;-77
2021/05/28 14:32:41;;;;;;;5.33;2.40;;;;;;;;;;5014709;28;20217;-76
2021/05/28 14:35:47;;;;;;;3.73;2.13;;;;;;;;;;5026275;28;20593;-76
2021/05/28 14:38:52;;;;;;;3.70;2.73;;;;;;;;;;5014864;28;20545;-76
2021/05/28 14:41:57;;;;;;;2.93;2.20;;;;;;;;;;5015702;28;20181;-76
2021/05/28 14:45:02;;;;;;;5.77;3.10;;;;;;;;;;5015586;28;20649;-76
2021/05/28 14:48:06;;;;;;;4.37;2.50;;;;;;;;;;5015561;28;20502;-76
2021/05/28 14:51:12;;;;;;;2.60;2.37;;;;;;;;;;5026028;28;20193;-75
2021/05/28 14:54:16;;;;;;;5.87;2.40;;;;;;;;;;5015020;28;20217;-76
2021/05/28 14:57:20;;;;;;;2.83;1.83;;;;;;;;;;5015284;28;20711;-76
2021/05/28 15:00:25;;;;;;;2.50;2.17;;;;;;;;;;5015306;28;20201;-76
2021/05/28 15:03:31;;;;;;;3.43;2.27;;;;;;;;;;5015058;28;20209;-76
2021/05/28 15:06:35;;;;;;;5.23;2.17;;;;;;;;;;5015127;28;20197;-76
2021/05/28 15:09:39;;;;;;;4.20;2.50;;;;;;;;;;5015078;28;20193;-76
2021/05/28 15:12:44;;;;;;;4.03;2.30;;;;;;;;;;5015059;28;20221;-76
2021/05/28 15:15:48;;;;;;;3.67;2.50;;;;;;;;;;5014724;28;20186;-76
2021/05/28 15:18:53;;;;;;;2.40;2.00;;;;;;;;;;5014900;28;20210;-76
2021/05/28 15:21:57;;;;;;;2.00;1.77;;;;;;;;;;5025724;28;20174;-76
2021/05/28 15:25:03;;;;;;;5.53;1.80;;;;;;;;;;5014880;28;20181;-76
2021/05/28 15:28:07;;;;;;;2.00;1.70;;;;;;;;;;5015079;28;20177;-76
2021/05/28 15:31:12;;;;;;;3.03;1.80;;;;;;;;;;5025285;28;20174;-76
2021/05/28 15:34:16;;;;;;;2.40;1.90;;;;;;;;;;5013585;28;20561;-76
2021/05/28 15:37:20;;;;;;;2.83;2.10;;;;;;;;;;5014571;28;20185;-76
2021/05/28 15:40:24;;;;;;;2.77;1.60;;;;;;;;;;5014392;28;20633;-76
2021/05/28 15:43:28;;;;;;;3.40;2.97;;;;;;;;;;5011504;28;20225;-76
2021/05/28 15:46:32;;;;;;;3.40;2.30;;;;;;;;;;5021199;28;20529;-76
2021/05/28 15:49:39;;;;;;;4.30;2.50;;;;;;;;;;5020892;28;20181;-75
2021/05/28 15:52:45;;;;;;;4.47;2.67;;;;;;;;;;5020746;28;20583;-76
2021/05/28 15:55:50;;;;;;;2.87;2.67;;;;;;;;;;5009986;28;20617;-75
2021/05/28 15:58:54;;;;;;;6.17;3.37;;;;;;;;;;5009393;28;20213;-76
2021/05/28 16:01:59;;;;;;;5.50;2.73;;;;;;;;;;5010354;28;20189;-76
2021/05/28 16:05:06;;;;;;;5.53;2.33;;;;;;;;;;5020825;28;20636;-75
2021/05/28 16:08:13;;;;;;;2.43;2.20;;;;;;;;;;5008957;28;20174;-75
2021/05/28 16:11:17;;;;;;;4.27;2.10;;;;;;;;;;5009321;28;20190;-76
2021/05/28 16:14:22;;;;;;;3.00;2.20;;;;;;;;;;5010361;28;20217;-76
2021/05/28 16:17:28;;;;;;;2.57;2.03;;;;;;;;;;5009876;28;20526;-75
2021/05/28 16:20:33;;;;;;;2.00;1.80;;;;;;;;;;5020112;28;20632;-76
2021/05/28 16:23:37;;;;;;;11.17;2.67;;;;;;;;;;5010015;28;20217;-75
2021/05/28 16:26:43;;;;;;;3.43;2.23;;;;;;;;;;5008953;28;20177;-76
2021/05/28 16:29:48;;;;;;;2.67;2.00;;;;;;;;;;5009969;28;20178;-76
2021/05/28 16:32:52;;;;;;;2.00;1.80;;;;;;;;;;5008505;28;20212;-75
2021/05/28 16:35:57;;;;;;;3.07;2.00;;;;;;;;;;5009764;28;20185;-75
2021/05/28 16:39:04;;;;;;;5.67;3.37;;;;;;;;;;5020053;28;20621;-75
2021/05/28 16:42:08;;;;;;;3.83;2.93;;;;;;;;;;5009633;28;20177;-75
2021/05/28 16:45:12;;;;;;;4.53;2.17;;;;;;;;;;5009388;28;20173;-75
2021/05/28 16:48:16;;;;;;;14.27;2.70;;;;;;;;;;5009576;28;20201;-76
2021/05/28 16:51:21;;;;;;;5.17;2.10;;;;;;;;;;5009616;28;20829;-76
2021/05/28 16:54:25;;;;;;;3.50;2.20;;;;;;;;;;5009735;28;20225;-75
2021/05/28 16:57:29;;;;;;;11.00;2.83;;;;;;;;;;5009241;28;20182;-75
2021/05/28 17:00:34;;;;;;;2.60;1.70;;;;;;;;;;5019907;28;20603;-75
2021/05/28 17:03:38;;;;;;;2.53;1.80;;;;;;;;;;5009394;28;20217;-75
2021/05/28 17:06:42;;;;;;;2.63;1.47;;;;;;;;;;5020068;28;20173;-75
2021/05/28 17:09:47;;;;;;;3.40;1.97;;;;;;;;;;5008619;28;20534;-75
2021/05/28 17:12:51;;;;;;;3.40;2.10;;;;;;;;;;5009255;28;20683;-76
2021/05/28 17:15:55;;;;;;;4.73;1.90;;;;;;;;;;5009601;28;20182;-75
2021/05/28 17:18:59;;;;;;;2.37;1.70;;;;;;;;;;5008416;28;20675;-75
2021/05/28 17:22:04;;;;;;;3.10;1.90;;;;;;;;;;5009235;28;20178;-76
2021/05/28 17:25:09;;;;;;;3.50;1.70;;;;;;;;;;5019792;28;20174;-75
2021/05/28 17:28:13;;;;;;;3.77;1.60;;;;;;;;;;5020060;28;20232;-75
2021/05/28 17:31:20;;;;;;;2.60;1.43;;;;;;;;;;5008880;28;20617;-76
2021/05/28 17:34:24;;;;;;;4.37;1.60;;;;;;;;;;5009067;28;20221;-75
2021/05/28 17:37:28;;;;;;;5.07;1.70;;;;;;;;;;5008502;28;20181;-75
2021/05/28 17:40:33;;;;;;;3.30;1.80;;;;;;;;;;5012804;28;20178;-76
2021/05/28 17:43:38;;;;;;;2.70;1.50;;;;;;;;;;5012514;28;20252;-76
2021/05/28 17:46:43;;;;;;;2.57;1.53;;;;;;;;;;5012741;28;20189;-75
2021/05/28 17:49:47;;;;;;;1.50;1.20;;;;;;;;;;5012716;28;20178;-76
2021/05/28 17:52:51;;;;;;;1.80;1.50;;;;;;;;;;5013150;28;20220;-75
2021/05/28 17:55:56;;;;;;;2.40;1.77;;;;;;;;;;5013218;28;20193;-76
2021/05/28 17:59:01;;;;;;;2.50;1.50;;;;;;;;;;5011578;28;20759;-75
2021/05/28 18:02:05;;;;;;;2.50;1.60;;;;;;;;;;5011519;28;20181;-75
2021/05/28 18:05:10;;;;;;;3.43;1.50;;;;;;;;;;5012385;28;20177;-76
2021/05/28 18:08:15;;;;;;;1.20;1.00;;;;;;;;;;4999991;28;20186;-76
2021/05/28 18:11:19;;;;;;;2.40;1.27;;;;;;;;;;5022780;28;20641;-75
2021/05/28 18:14:24;;;;;;;1.87;1.20;;;;;;;;;;5012079;28;20684;-75
2021/05/28 18:17:29;;;;;;;3.47;1.60;;;;;;;;;;5012140;28;20182;-75
2021/05/28 18:20:33;;;;;;;2.87;2.07;;;;;;;;;;5011693;28;20178;-75
2021/05/28 18:23:37;;;;;;;3.83;1.50;;;;;;;;;;5011805;28;20703;-75
2021/05/28 18:26:42;;;;;;;2.70;1.50;;;;;;;;;;5011812;28;20185;-75
2021/05/28 18:29:46;;;;;;;3.63;2.90;;;;;;;;;;5011958;28;20193;-76
2021/05/28 18:32:53;;;;;;;4.60;1.70;;;;;;;;;;5022177;28;20221;-75